createdAt,value
2022-08-25T00:02:24.320Z,22.53
2022-08-25T00:05:14.923Z,22.49
2022-08-25T00:08:05.844Z,22.47
2022-08-25T00:11:03.233Z,22.44
2022-08-25T00:13:55.268Z,22.41
2022-08-25T00:16:43.636Z,22.39
2022-08-25T00:19:37.972Z,22.36
2022-08-25T00:22:26.210Z,22.32
2022-08-25T00:25:14.383Z,22.29
2022-08-25T00:28:07.800Z,22.26
2022-08-25T00:30:58.179Z,22.27
2022-08-25T00:33:47.722Z,22.24
2022-08-25T00:36:36.692Z,22.23
2022-08-25T00:39:25.718Z,22.21
2022-08-25T00:42:16.273Z,22.20
2022-08-25T00:45:06.881Z,22.16
2022-08-25T00:47:58.961Z,22.15
2022-08-25T00:50:48.744Z,22.11
2022-08-25T00:53:36.968Z,22.10
2022-08-25T00:56:25.691Z,22.09
2022-08-25T00:59:15.853Z,22.07
2022-08-25T01:02:05.572Z,22.07
2022-08-25T01:04:57.743Z,22.05
2022-08-25T01:07:46.568Z,22.01
2022-08-25T01:10:36.687Z,22.00
2022-08-25T01:13:31.344Z,21.98
2022-08-25T01:16:20.613Z,21.95
2022-08-25T01:19:11.983Z,21.93
2022-08-25T01:22:05.699Z,21.91
2022-08-25T01:25:02.704Z,21.89
2022-08-25T01:27:51.646Z,21.86
2022-08-25T01:30:40.338Z,21.83
2022-08-25T01:33:28.409Z,21.79
2022-08-25T01:36:19.985Z,21.77
2022-08-25T01:39:08.941Z,21.73
2022-08-25T01:42:28.665Z,21.68
2022-08-25T01:45:17.917Z,21.62
2022-08-25T01:48:08.066Z,21.58
2022-08-25T01:50:56.001Z,21.52
2022-08-25T01:53:44.285Z,21.48
2022-08-25T01:56:32.672Z,21.43
2022-08-25T01:59:24.056Z,21.39
2022-08-25T02:02:12.885Z,21.37
2022-08-25T02:05:01.576Z,21.37
2022-08-25T02:07:49.737Z,21.35
2022-08-25T02:10:37.745Z,21.33
2022-08-25T02:13:31.091Z,21.32
2022-08-25T02:16:24.502Z,21.31
2022-08-25T02:19:13.367Z,21.31
2022-08-25T02:22:02.549Z,21.31
2022-08-25T02:24:51.203Z,21.31
2022-08-25T02:27:39.823Z,21.34
2022-08-25T02:30:28.066Z,21.32
2022-08-25T02:33:15.858Z,21.28
2022-08-25T02:36:05.546Z,21.24
2022-08-25T02:38:53.825Z,21.22
2022-08-25T02:41:42.212Z,21.22
2022-08-25T02:44:31.247Z,21.25
2022-08-25T02:47:19.677Z,21.27
2022-08-25T02:50:15.334Z,21.29
2022-08-25T02:53:03.888Z,21.31
2022-08-25T02:55:52.215Z,21.33
2022-08-25T02:58:41.893Z,21.33
2022-08-25T03:01:31.614Z,21.35
2022-08-25T03:04:19.725Z,21.36
2022-08-25T03:07:08.041Z,21.35
2022-08-25T03:09:56.595Z,21.37
2022-08-25T03:12:45.963Z,21.35
2022-08-25T03:15:37.174Z,21.36
2022-08-25T03:18:26.323Z,21.35
2022-08-25T03:21:15.910Z,21.33
2022-08-25T03:24:05.217Z,21.34
2022-08-25T03:26:55.168Z,21.35
2022-08-25T03:29:43.444Z,21.34
2022-08-25T03:32:32.059Z,21.33
2022-08-25T03:35:21.191Z,21.34
2022-08-25T03:38:09.580Z,21.35
2022-08-25T03:40:57.855Z,21.36
2022-08-25T03:43:48.233Z,21.37
2022-08-25T03:46:40.418Z,21.38
2022-08-25T03:49:28.908Z,21.40
2022-08-25T03:52:18.845Z,21.42
2022-08-25T03:55:10.700Z,21.43
2022-08-25T03:57:59.307Z,21.43
2022-08-25T04:00:47.353Z,21.44
2022-08-25T04:03:35.731Z,21.46
2022-08-25T04:06:24.177Z,21.47
2022-08-25T04:09:12.783Z,21.48
2022-08-25T04:12:01.223Z,21.50
2022-08-25T04:14:49.817Z,21.50
2022-08-25T04:17:39.901Z,21.52
2022-08-25T04:20:28.592Z,21.54
2022-08-25T04:23:16.916Z,21.56
2022-08-25T04:26:09.762Z,21.59
2022-08-25T04:28:59.459Z,21.60
2022-08-25T04:31:49.812Z,21.64
2022-08-25T04:34:38.528Z,21.67
2022-08-25T04:37:26.871Z,21.69
2022-08-25T04:40:14.856Z,21.72
2022-08-25T04:43:03.205Z,21.77
2022-08-25T04:45:52.175Z,21.80
2022-08-25T04:48:40.717Z,21.85
2022-08-25T04:51:33.621Z,21.90
2022-08-25T04:54:22.274Z,21.96
2022-08-25T04:57:10.887Z,22.02
2022-08-25T04:59:59.452Z,22.08
2022-08-25T05:02:47.394Z,22.13
2022-08-25T05:05:37.936Z,22.18
2022-08-25T05:08:26.645Z,22.24
2022-08-25T05:11:17.691Z,22.31
2022-08-25T05:14:10.926Z,22.37
2022-08-25T05:16:59.439Z,22.44
2022-08-25T05:19:48.464Z,22.52
2022-08-25T05:22:36.634Z,22.58
2022-08-25T05:25:25.191Z,22.66
2022-08-25T05:28:14.467Z,22.73
2022-08-25T05:31:04.771Z,22.80
2022-08-25T05:33:55.295Z,22.88
2022-08-25T05:36:43.984Z,22.97
2022-08-25T05:39:33.341Z,23.07
2022-08-25T05:42:21.959Z,23.15
2022-08-25T05:45:15.825Z,23.26
2022-08-25T05:48:08.418Z,23.37
2022-08-25T05:50:59.677Z,23.46
2022-08-25T05:53:49.951Z,23.56
2022-08-25T05:56:39.587Z,23.67
2022-08-25T05:59:27.905Z,23.79
2022-08-25T06:02:34.788Z,23.92
2022-08-25T06:05:23.729Z,24.06
2022-08-25T06:08:12.986Z,24.17
2022-08-25T06:11:01.023Z,24.28
2022-08-25T06:13:49.567Z,24.39
2022-08-25T06:16:38.676Z,24.49
2022-08-25T06:19:27.308Z,24.57
2022-08-25T06:22:15.617Z,24.68
2022-08-25T06:25:04.943Z,24.80
2022-08-25T06:27:54.996Z,24.92
2022-08-25T06:30:43.114Z,25.02
2022-08-25T06:33:31.700Z,25.12
2022-08-25T06:36:20.066Z,25.18
2022-08-25T06:39:10.503Z,25.26
2022-08-25T06:41:59.812Z,25.33
2022-08-25T06:44:48.600Z,25.42
2022-08-25T06:47:36.817Z,25.50
2022-08-25T06:50:25.153Z,25.57
2022-08-25T06:53:13.750Z,25.65
2022-08-25T06:56:06.477Z,25.72
2022-08-25T06:58:54.772Z,25.80
2022-08-25T07:01:44.049Z,25.88
2022-08-25T07:04:33.273Z,25.96
2022-08-25T07:07:21.166Z,26.05
2022-08-25T07:10:11.021Z,26.16
2022-08-25T07:12:59.433Z,26.21
2022-08-25T07:15:47.821Z,26.26
2022-08-25T07:18:37.039Z,26.31
2022-08-25T07:21:31.233Z,26.38
2022-08-25T07:24:23.076Z,26.47
2022-08-25T07:27:11.168Z,26.59
2022-08-25T07:30:00.061Z,26.73
2022-08-25T07:32:55.074Z,26.84
2022-08-25T07:35:44.107Z,26.99
2022-08-25T07:38:32.093Z,27.13
2022-08-25T07:41:26.140Z,27.26
2022-08-25T07:44:14.448Z,27.41
2022-08-25T07:47:02.555Z,27.52
2022-08-25T07:49:51.989Z,27.64
2022-08-25T07:52:40.731Z,27.75
2022-08-25T07:55:30.321Z,27.85
2022-08-25T07:58:18.721Z,27.98
2022-08-25T08:01:07.950Z,28.09
2022-08-25T08:03:58.371Z,28.20
2022-08-25T08:06:48.953Z,28.34
2022-08-25T08:09:37.870Z,28.42
2022-08-25T08:12:27.231Z,28.55
2022-08-25T08:15:15.397Z,28.68
2022-08-25T08:18:04.215Z,28.81
2022-08-25T08:20:55.676Z,28.91
2022-08-25T08:23:43.889Z,28.98
2022-08-25T08:26:55.299Z,29.05
2022-08-25T08:29:41.755Z,29.13
2022-08-25T08:32:36.689Z,29.20
2022-08-25T08:35:34.907Z,29.33
2022-08-25T08:38:27.118Z,29.46
2022-08-25T08:42:11.131Z,29.57
2022-08-25T08:45:23.787Z,29.76
2022-08-25T08:48:50.019Z,29.92
2022-08-25T08:51:47.717Z,30.07
2022-08-25T08:54:41.342Z,30.19
2022-08-25T08:57:35.713Z,30.33
2022-08-25T09:00:25.025Z,30.50
2022-08-25T09:03:26.494Z,30.67
2022-08-25T09:06:22.483Z,30.85
2022-08-25T09:09:14.576Z,31.02
2022-08-25T09:12:23.785Z,31.13
2022-08-25T09:15:21.731Z,31.26
2022-08-25T09:18:23.708Z,31.43
2022-08-25T09:21:17.570Z,31.59
2022-08-25T09:24:27.279Z,31.72
2022-08-25T09:27:25.821Z,31.85
2022-08-25T09:30:17.440Z,31.96
2022-08-25T09:33:06.035Z,32.09
2022-08-25T09:35:57.338Z,32.19
2022-08-25T09:38:46.166Z,32.33
2022-08-25T09:41:44.769Z,32.44
2022-08-25T09:44:39.070Z,32.56
2022-08-25T09:47:28.076Z,32.65
2022-08-25T09:50:19.680Z,32.76
2022-08-25T09:53:18.534Z,32.88
2022-08-25T09:56:11.912Z,33.03
2022-08-25T09:59:21.299Z,33.17
2022-08-25T10:02:25.198Z,33.34
2022-08-25T10:05:23.318Z,33.44
2022-08-25T10:08:14.662Z,33.57
2022-08-25T10:11:08.839Z,33.69
2022-08-25T10:14:04.627Z,33.83
2022-08-25T10:17:10.999Z,33.88
2022-08-25T10:20:17.669Z,34.01
2022-08-25T10:23:14.502Z,34.15
2022-08-25T10:26:10.472Z,34.19
2022-08-25T10:29:12.690Z,34.22
2022-08-25T10:32:03.883Z,34.28
2022-08-25T10:34:54.053Z,34.32
2022-08-25T10:37:47.324Z,34.31
2022-08-25T10:40:46.155Z,34.34
2022-08-25T10:43:43.101Z,34.34
2022-08-25T10:46:41.402Z,34.35
2022-08-25T10:49:37.778Z,34.42
2022-08-25T10:52:37.688Z,34.50
2022-08-25T10:55:33.617Z,34.57
2022-08-25T10:58:42.716Z,34.62
2022-08-25T11:01:44.755Z,34.70
2022-08-25T11:04:39.890Z,34.81
2022-08-25T11:07:35.636Z,34.88
2022-08-25T11:10:31.817Z,34.93
2022-08-25T11:13:42.787Z,35.03
2022-08-25T11:16:38.384Z,35.12
2022-08-25T11:19:32.726Z,35.14
2022-08-25T11:22:29.958Z,35.17
2022-08-25T11:25:23.823Z,35.19
2022-08-25T11:28:18.376Z,35.27
2022-08-25T11:31:08.930Z,35.37
2022-08-25T11:33:59.151Z,35.40
2022-08-25T11:36:55.403Z,35.47
2022-08-25T11:40:16.772Z,35.54
2022-08-25T11:43:24.569Z,35.61
2022-08-25T11:46:35.210Z,35.67
2022-08-25T11:49:49.236Z,35.69
2022-08-25T11:52:53.353Z,35.64
2022-08-25T11:55:51.122Z,35.62
2022-08-25T11:58:46.543Z,35.58
2022-08-25T12:02:09.939Z,35.58
2022-08-25T12:04:58.386Z,35.60
2022-08-25T12:08:20.113Z,35.64
2022-08-25T12:11:11.454Z,35.67
2022-08-25T12:14:15.993Z,35.74
2022-08-25T12:17:22.015Z,35.79
2022-08-25T12:20:10.635Z,35.78
2022-08-25T12:23:00.704Z,35.72
2022-08-25T12:25:53.559Z,35.68
2022-08-25T12:28:56.532Z,35.71
2022-08-25T12:32:05.007Z,35.75
2022-08-25T12:35:17.323Z,35.75
2022-08-25T12:38:10.861Z,35.77
2022-08-25T12:41:04.523Z,35.78
2022-08-25T12:44:08.945Z,35.78
2022-08-25T12:47:12.786Z,35.72
2022-08-25T12:50:27.616Z,35.65
2022-08-25T12:53:33.287Z,35.66
2022-08-25T12:56:27.868Z,35.65
2022-08-25T12:59:21.264Z,35.68
2022-08-25T13:02:52.044Z,35.67
2022-08-25T13:06:26.420Z,35.64
2022-08-25T13:09:58.145Z,35.58
2022-08-25T13:12:50.997Z,35.58
2022-08-25T13:15:44.458Z,35.56
2022-08-25T13:18:36.280Z,35.56
2022-08-25T13:21:30.951Z,35.53
2022-08-25T13:24:23.808Z,35.51
2022-08-25T13:27:22.764Z,35.52
2022-08-25T13:30:24.413Z,35.52
2022-08-25T13:33:21.835Z,35.59
2022-08-25T13:36:36.144Z,35.58
2022-08-25T13:39:45.402Z,35.60
2022-08-25T13:42:42.386Z,35.58
2022-08-25T13:45:41.239Z,35.53
2022-08-25T13:48:35.847Z,35.51
2022-08-25T13:51:31.458Z,35.52
2022-08-25T13:54:27.616Z,35.50
2022-08-25T13:57:22.278Z,35.52
2022-08-25T14:00:25.575Z,35.49
2022-08-25T14:03:35.613Z,35.44
2022-08-25T14:06:25.780Z,35.39
2022-08-25T14:09:17.632Z,35.37
2022-08-25T14:12:06.289Z,35.38
2022-08-25T14:15:01.010Z,35.33
2022-08-25T14:18:03.175Z,35.30
2022-08-25T14:20:55.151Z,35.22
2022-08-25T14:23:44.033Z,35.20
2022-08-25T14:26:32.089Z,35.19
2022-08-25T14:29:22.469Z,35.15
2022-08-25T14:32:11.337Z,35.13
2022-08-25T14:35:01.758Z,35.11
2022-08-25T14:37:57.073Z,35.07
2022-08-25T14:40:45.751Z,35.01
2022-08-25T14:43:34.057Z,34.99
2022-08-25T14:46:24.868Z,34.94
2022-08-25T14:49:17.334Z,34.88
2022-08-25T14:52:19.591Z,34.81
2022-08-25T14:55:12.814Z,34.74
2022-08-25T14:58:25.925Z,34.68
2022-08-25T15:01:17.128Z,34.64
2022-08-25T15:04:09.431Z,34.63
2022-08-25T15:07:01.070Z,34.64
2022-08-25T15:09:51.109Z,34.58
2022-08-25T15:12:47.295Z,34.48
2022-08-25T15:15:52.425Z,34.38
2022-08-25T15:18:41.786Z,34.29
2022-08-25T15:21:30.793Z,34.17
2022-08-25T15:24:21.991Z,34.03
2022-08-25T15:27:10.150Z,33.92
2022-08-25T15:29:58.538Z,33.79
2022-08-25T15:32:48.575Z,33.71
2022-08-25T15:35:36.900Z,33.62
2022-08-25T15:38:24.985Z,33.50
2022-08-25T15:41:14.482Z,33.40
2022-08-25T15:44:03.616Z,33.34
2022-08-25T15:46:52.036Z,33.28
2022-08-25T15:49:40.785Z,33.16
2022-08-25T15:52:44.488Z,33.09
2022-08-25T15:55:39.809Z,33.04
2022-08-25T15:58:27.979Z,32.99
2022-08-25T16:01:18.068Z,32.93
2022-08-25T16:04:07.635Z,32.83
2022-08-25T16:06:56.440Z,32.75
2022-08-25T16:09:47.091Z,32.66
2022-08-25T16:12:36.898Z,32.57
2022-08-25T16:15:28.684Z,32.53
2022-08-25T16:18:17.584Z,32.42
2022-08-25T16:21:12.697Z,32.24
2022-08-25T16:24:07.189Z,32.08
2022-08-25T16:27:11.416Z,31.93
2022-08-25T16:30:00.474Z,31.77
2022-08-25T16:32:48.922Z,31.62
2022-08-25T16:35:40.563Z,31.51
2022-08-25T16:38:29.396Z,31.37
2022-08-25T16:41:21.770Z,31.20
2022-08-25T16:44:11.180Z,31.08
2022-08-25T16:46:59.942Z,30.97
2022-08-25T16:49:47.880Z,30.84
2022-08-25T16:52:54.568Z,30.72
2022-08-25T16:55:42.920Z,30.62
2022-08-25T16:58:32.619Z,30.55
2022-08-25T17:01:21.887Z,30.41
2022-08-25T17:04:11.857Z,30.30
2022-08-25T17:07:02.134Z,30.18
2022-08-25T17:09:50.518Z,30.08
2022-08-25T17:12:39.467Z,29.99
2022-08-25T17:15:28.721Z,29.87
2022-08-25T17:18:17.468Z,29.80
2022-08-25T17:21:08.298Z,29.68
2022-08-25T17:23:56.805Z,29.58
2022-08-25T17:26:47.327Z,29.48
2022-08-25T17:29:37.800Z,29.40
2022-08-25T17:32:28.729Z,29.36
2022-08-25T17:35:19.359Z,29.30
2022-08-25T17:38:10.757Z,29.22
2022-08-25T17:41:02.469Z,29.16
2022-08-25T17:43:53.316Z,29.06
2022-08-25T17:46:47.370Z,29.01
2022-08-25T17:49:36.963Z,28.94
2022-08-25T17:52:25.112Z,28.89
2022-08-25T17:55:14.062Z,28.82
2022-08-25T17:58:04.045Z,28.74
2022-08-25T18:00:52.028Z,28.62
2022-08-25T18:03:40.495Z,28.54
2022-08-25T18:06:31.125Z,28.47
2022-08-25T18:09:19.610Z,28.42
2022-08-25T18:12:08.192Z,28.36
2022-08-25T18:14:56.533Z,28.30
2022-08-25T18:17:47.067Z,28.25
2022-08-25T18:20:35.571Z,28.19
2022-08-25T18:23:23.921Z,28.15
2022-08-25T18:26:13.377Z,28.09
2022-08-25T18:29:01.527Z,28.03
2022-08-25T18:31:52.037Z,27.99
2022-08-25T18:34:41.377Z,27.93
2022-08-25T18:37:47.694Z,27.89
2022-08-25T18:40:37.209Z,27.84
2022-08-25T18:43:26.145Z,27.82
2022-08-25T18:46:15.804Z,27.78
2022-08-25T18:49:04.595Z,27.72
2022-08-25T18:51:52.846Z,27.65
2022-08-25T18:54:41.403Z,27.59
2022-08-25T18:57:29.857Z,27.53
2022-08-25T19:00:21.551Z,27.44
2022-08-25T19:03:10.577Z,27.37
2022-08-25T19:06:00.172Z,27.27
2022-08-25T19:08:49.379Z,27.20
2022-08-25T19:11:38.979Z,27.12
2022-08-25T19:14:28.063Z,27.02
2022-08-25T19:17:17.081Z,26.96
2022-08-25T19:20:11.283Z,26.88
2022-08-25T19:23:00.255Z,26.78
2022-08-25T19:25:49.234Z,26.70
2022-08-25T19:28:37.500Z,26.63
2022-08-25T19:31:26.699Z,26.56
2022-08-25T19:34:19.659Z,26.49
2022-08-25T19:37:10.006Z,26.43
2022-08-25T19:39:59.912Z,26.38
2022-08-25T19:42:49.235Z,26.32
2022-08-25T19:45:42.858Z,26.28
2022-08-25T19:48:31.536Z,26.21
2022-08-25T19:51:21.914Z,26.16
2022-08-25T19:54:11.474Z,26.10
2022-08-25T19:57:00.000Z,26.05
2022-08-25T19:59:48.768Z,26.00
2022-08-25T20:02:38.047Z,25.94
2022-08-25T20:05:29.261Z,25.89
2022-08-25T20:08:17.505Z,25.85
2022-08-25T20:11:18.125Z,25.78
2022-08-25T20:14:08.059Z,25.74
2022-08-25T20:16:56.894Z,25.68
2022-08-25T20:19:45.065Z,25.63
2022-08-25T20:22:34.102Z,25.59
2022-08-25T20:25:25.090Z,25.58
2022-08-25T20:28:19.061Z,25.53
2022-08-25T20:31:07.896Z,25.50
2022-08-25T20:33:59.925Z,25.47
2022-08-25T20:36:50.813Z,25.47
2022-08-25T20:39:40.840Z,25.46
2022-08-25T20:42:29.410Z,25.44
2022-08-25T20:45:21.229Z,25.43
2022-08-25T20:48:09.273Z,25.43
2022-08-25T20:50:58.041Z,25.41
2022-08-25T20:53:45.940Z,25.39
2022-08-25T20:56:34.681Z,25.38
2022-08-25T20:59:23.392Z,25.35
2022-08-25T21:02:12.549Z,25.30
2022-08-25T21:05:04.161Z,25.31
2022-08-25T21:07:52.842Z,25.32
2022-08-25T21:10:41.685Z,25.31
2022-08-25T21:13:32.137Z,25.25
2022-08-25T21:16:20.766Z,25.23
2022-08-25T21:19:11.810Z,25.19
2022-08-25T21:22:00.624Z,25.14
2022-08-25T21:24:50.922Z,25.10
2022-08-25T21:27:38.882Z,25.07
2022-08-25T21:30:28.631Z,25.02
2022-08-25T21:33:17.141Z,24.99
2022-08-25T21:36:09.851Z,24.96
2022-08-25T21:39:00.812Z,24.90
2022-08-25T21:41:49.466Z,24.88
2022-08-25T21:44:37.637Z,24.89
2022-08-25T21:47:26.007Z,24.92
2022-08-25T21:50:14.318Z,24.93
2022-08-25T21:53:03.147Z,24.92
2022-08-25T21:55:51.431Z,24.92
2022-08-25T21:58:39.981Z,24.91
2022-08-25T22:01:28.990Z,24.89
2022-08-25T22:04:17.230Z,24.87
2022-08-25T22:07:06.386Z,24.84
2022-08-25T22:09:54.558Z,24.83
2022-08-25T22:12:43.602Z,24.78
2022-08-25T22:15:31.460Z,24.72
2022-08-25T22:18:20.468Z,24.67
2022-08-25T22:21:09.625Z,24.59
2022-08-25T22:24:00.507Z,24.55
2022-08-25T22:26:49.286Z,24.51
2022-08-25T22:29:37.354Z,24.44
2022-08-25T22:32:25.555Z,24.36
2022-08-25T22:35:14.393Z,24.22
2022-08-25T22:38:03.224Z,24.08
2022-08-25T22:40:51.423Z,23.99
2022-08-25T22:43:40.550Z,23.91
2022-08-25T22:46:30.545Z,23.87
2022-08-25T22:49:19.219Z,23.84
2022-08-25T22:52:11.515Z,23.78
2022-08-25T22:55:02.300Z,23.73
2022-08-25T22:57:50.659Z,23.72
2022-08-25T23:00:43.402Z,23.72
2022-08-25T23:03:31.916Z,23.69
2022-08-25T23:06:24.958Z,23.67
2022-08-25T23:09:13.382Z,23.65
2022-08-25T23:12:02.317Z,23.65
2022-08-25T23:14:50.900Z,23.62
2022-08-25T23:17:39.271Z,23.61
2022-08-25T23:20:45.850Z,23.58
2022-08-25T23:23:36.566Z,23.52
2022-08-25T23:26:26.063Z,23.46
2022-08-25T23:29:17.713Z,23.40
2022-08-25T23:32:08.043Z,23.38
2022-08-25T23:34:56.359Z,23.37
2022-08-25T23:37:44.475Z,23.38
2022-08-25T23:40:34.452Z,23.36
2022-08-25T23:43:23.598Z,23.32
2022-08-25T23:46:12.861Z,23.27
2022-08-25T23:49:01.819Z,23.25
2022-08-25T23:51:52.886Z,23.23
2022-08-25T23:54:41.311Z,23.21
2022-08-25T23:57:31.453Z,23.18
